Time;durP1;ratioP1;P1;durP2;ratioP2;P2;SDS_P1;SDS_P2;PMS_P1;PMS_P2;Temp;Humidity;BMP_temperature;BMP_pressure;BME280_temperature;BME280_humidity;BME280_pressure;Samples;Min_cycle;Max_cycle;Signal;HPM_P1;HPM_P2
2023/04/29 00:00:26;;;;;;;26.90;15.75;;;9.60;94.50;;;;;;5074225;28;20270;-73
2023/04/29 00:03:16;;;;;;;24.55;16.27;;;9.60;99.30;;;;;;5070050;28;20659;-72
2023/04/29 00:06:06;;;;;;;25.15;15.82;;;9.50;96.70;;;;;;5068508;28;20220;-72
2023/04/29 00:08:55;;;;;;;29.17;16.70;;;9.60;99.90;;;;;;5072911;28;20284;-72
2023/04/29 00:11:46;;;;;;;23.73;15.35;;;9.60;99.00;;;;;;5067447;28;20490;-72
2023/04/29 00:14:34;;;;;;;22.83;15.23;;;9.50;98.60;;;;;;5074599;28;20226;-72
2023/04/29 00:17:24;;;;;;;24.20;16.13;;;9.60;98.90;;;;;;5067328;28;20320;-72
2023/04/29 00:20:14;;;;;;;22.38;15.95;;;9.50;99.10;;;;;;5069168;28;20373;-72
2023/04/29 00:23:04;;;;;;;22.00;15.50;;;9.60;98.20;;;;;;5093824;27;20231;-72
2023/04/29 00:25:53;;;;;;;22.42;15.80;;;9.50;98.20;;;;;;5062538;28;20224;-73
2023/04/29 00:28:42;;;;;;;23.33;15.05;;;9.40;98.70;;;;;;5072583;28;20228;-71
2023/04/29 00:31:32;;;;;;;24.38;15.38;;;9.40;97.60;;;;;;5072204;28;20271;-71
2023/04/29 00:34:21;;;;;;;26.00;15.77;;;9.30;98.60;;;;;;5069044;28;20231;-72
2023/04/29 00:37:10;;;;;;;28.20;16.63;;;9.40;99.60;;;;;;5078687;28;20325;-72
2023/04/29 00:40:00;;;;;;;27.05;16.08;;;9.40;97.80;;;;;;5073139;28;20289;-74
2023/04/29 00:42:49;;;;;;;26.27;15.45;;;9.30;99.00;;;;;;5082286;28;20220;-74
2023/04/29 00:45:39;;;;;;;22.95;15.90;;;9.20;98.30;;;;;;5061352;28;20777;-74
2023/04/29 00:48:29;;;;;;;20.77;14.52;;;9.40;99.90;;;;;;5070591;28;20224;-73
2023/04/29 00:51:18;;;;;;;24.23;14.85;;;9.40;99.80;;;;;;5095060;28;20607;-74
2023/04/29 00:54:08;;;;;;;24.75;15.80;;;9.30;99.90;;;;;;5067984;28;20341;-73
2023/04/29 00:57:00;;;;;;;21.27;14.65;;;9.20;95.40;;;;;;5073351;28;20684;-73
2023/04/29 00:59:49;;;;;;;25.88;15.45;;;9.30;95.40;;;;;;5068680;28;20276;-73
2023/04/29 01:02:39;;;;;;;25.27;15.43;;;9.30;95.70;;;;;;5067715;28;20228;-73
2023/04/29 01:05:28;;;;;;;27.38;15.07;;;9.30;96.10;;;;;;5085470;28;20216;-69
2023/04/29 01:08:38;;;;;;;22.70;15.27;;;9.30;96.40;;;;;;5074687;28;20216;-71
2023/04/29 01:11:41;;;;;;;21.92;14.93;;;9.30;96.90;;;;;;5077634;28;20223;-72
2023/04/29 01:14:37;;;;;;;22.88;14.68;;;9.40;96.70;;;;;;5084729;28;20220;-73
2023/04/29 01:17:31;;;;;;;20.58;14.43;;;9.40;97.20;;;;;;5073549;28;20785;-72
2023/04/29 01:20:22;;;;;;;24.02;15.45;;;9.40;97.40;;;;;;5075248;28;20234;-71
2023/04/29 01:23:11;;;;;;;20.27;13.95;;;9.40;97.50;;;;;;5075924;28;21219;-71
2023/04/29 01:26:04;;;;;;;23.08;15.00;;;9.30;97.90;;;;;;5078329;28;20219;-72
2023/04/29 01:29:25;;;;;;;23.70;15.18;;;9.40;98.00;;;;;;5072567;28;20231;-71
2023/04/29 01:32:23;;;;;;;23.10;13.85;;;9.20;98.30;;;;;;5083316;28;20231;-72
2023/04/29 01:35:26;;;;;;;22.38;15.32;;;9.20;98.40;;;;;;5073265;28;20287;-71
2023/04/29 01:38:23;;;;;;;21.38;14.35;;;9.30;98.70;;;;;;5095353;28;20219;-73
2023/04/29 01:41:18;;;;;;;22.45;14.48;;;9.30;98.30;;;;;;5073349;28;20770;-72
2023/04/29 01:44:16;;;;;;;21.25;14.07;;;9.20;98.90;;;;;;5099090;27;20711;-73
2023/04/29 01:47:06;;;;;;;23.63;14.00;;;9.30;99.20;;;;;;5076323;28;20227;-72
2023/04/29 01:50:01;;;;;;;25.65;14.35;;;9.20;99.30;;;;;;5068119;28;20246;-74
2023/04/29 01:52:51;;;;;;;21.17;14.02;;;9.10;99.60;;;;;;5079239;28;20227;-72
2023/04/29 01:55:40;;;;;;;27.63;13.63;;;9.10;99.50;;;;;;5073248;28;20238;-74
2023/04/29 01:58:40;;;;;;;19.65;13.57;;;9.10;99.60;;;;;;5074455;28;20224;-71
2023/04/29 02:01:55;;;;;;;19.13;13.52;;;9.10;99.80;;;;;;5095646;27;20795;-72
2023/04/29 02:04:44;;;;;;;20.80;13.90;;;9.00;99.90;;;;;;5079420;28;20211;-69
2023/04/29 02:07:34;;;;;;;22.70;14.30;;;9.10;99.90;;;;;;5078333;28;20352;-72
2023/04/29 02:10:22;;;;;;;17.40;13.20;;;9.20;99.90;;;;;;5074667;28;20262;-73
2023/04/29 02:13:21;;;;;;;18.17;13.00;;;9.10;99.90;;;;;;5083709;28;20215;-72
2023/04/29 02:16:12;;;;;;;18.70;13.32;;;9.10;99.90;;;;;;5076141;28;20243;-71
2023/04/29 02:19:05;;;;;;;20.08;13.38;;;9.10;99.90;;;;;;5088490;27;20231;-71
2023/04/29 02:21:55;;;;;;;22.45;13.38;;;9.00;99.90;;;;;;5073857;28;20216;-73
2023/04/29 02:24:45;;;;;;;20.42;13.10;;;9.10;99.90;;;;;;5065238;28;20322;-71
2023/04/29 02:27:34;;;;;;;17.20;12.50;;;9.00;99.90;;;;;;5066682;28;20318;-71
2023/04/29 02:30:24;;;;;;;20.98;12.73;;;9.10;99.90;;;;;;5074370;28;20232;-71
2023/04/29 02:33:15;;;;;;;22.33;12.55;;;9.00;99.90;;;;;;5072285;28;20305;-70
2023/04/29 02:36:04;;;;;;;22.40;13.30;;;9.00;99.90;;;;;;5087298;27;20229;-72
2023/04/29 02:38:55;;;;;;;18.35;12.35;;;9.10;99.50;;;;;;5073435;28;20604;-71
2023/04/29 02:41:44;;;;;;;19.60;12.32;;;9.10;99.90;;;;;;5072139;28;20228;-72
2023/04/29 02:44:33;;;;;;;18.20;12.55;;;9.00;99.90;;;;;;5071014;28;20224;-71
2023/04/29 02:47:22;;;;;;;18.30;13.02;;;9.00;99.90;;;;;;5072323;28;20273;-72
2023/04/29 02:50:16;;;;;;;18.40;12.40;;;9.00;99.90;;;;;;5086261;28;20305;-73
2023/04/29 02:53:05;;;;;;;21.85;12.75;;;;;;;;;;5067928;28;20307;-72
2023/04/29 02:55:55;;;;;;;19.17;12.32;;;9.00;96.20;;;;;;5067320;28;20231;-71
2023/04/29 02:58:45;;;;;;;16.80;11.77;;;9.00;96.60;;;;;;5074813;28;20580;-72
2023/04/29 03:01:33;;;;;;;16.58;12.00;;;9.00;96.50;;;;;;5076080;28;20216;-72
2023/04/29 03:04:23;;;;;;;19.00;12.05;;;9.00;96.50;;;;;;5078328;27;20242;-71
2023/04/29 03:07:16;;;;;;;19.35;12.35;;;9.00;96.50;;;;;;5071460;28;20276;-72
2023/04/29 03:10:06;;;;;;;19.08;11.77;;;8.90;96.90;;;;;;5074600;28;20319;-72
2023/04/29 03:12:57;;;;;;;18.88;11.60;;;9.00;96.70;;;;;;5067106;28;20377;-73
2023/04/29 03:15:46;;;;;;;21.48;11.50;;;9.00;96.70;;;;;;5081973;28;20224;-73
2023/04/29 03:18:36;;;;;;;23.50;12.55;;;8.90;97.30;;;;;;5079317;28;20224;-74
2023/04/29 03:21:26;;;;;;;19.30;11.27;;;8.70;97.30;;;;;;5071609;28;20228;-71
2023/04/29 03:24:17;;;;;;;19.17;11.93;;;8.90;97.40;;;;;;5073037;28;20220;-72
2023/04/29 03:27:05;;;;;;;20.10;12.10;;;9.10;98.00;;;;;;5101574;27;20316;-71
2023/04/29 03:29:54;;;;;;;20.48;11.77;;;9.10;98.20;;;;;;5073600;28;20242;-70
2023/04/29 03:32:44;;;;;;;13.43;10.38;;;8.90;97.70;;;;;;5074418;28;20208;-71
2023/04/29 03:35:33;;;;;;;16.88;11.20;;;8.70;96.30;;;;;;5096735;27;20595;-71
2023/04/29 03:38:40;;;;;;;16.20;11.35;;;8.80;96.30;;;;;;5073896;28;20806;-71
2023/04/29 03:41:31;;;;;;;18.17;11.00;;;8.90;96.70;;;;;;5071239;28;20227;-72
2023/04/29 03:44:20;;;;;;;17.33;11.43;;;8.90;96.40;;;;;;5072975;28;20224;-71
2023/04/29 03:47:08;;;;;;;16.42;10.23;;;8.90;96.30;;;;;;5074221;28;20585;-72
2023/04/29 03:49:57;;;;;;;17.70;11.15;;;8.80;96.10;;;;;;5075806;28;20236;-72
2023/04/29 03:52:46;;;;;;;17.15;11.60;;;8.90;96.20;;;;;;5070712;28;20240;-72
2023/04/29 03:55:37;;;;;;;16.02;10.88;;;9.00;96.20;;;;;;5069989;28;20630;-71
2023/04/29 03:58:28;;;;;;;18.13;10.60;;;8.90;96.20;;;;;;5065924;28;20232;-73
2023/04/29 04:01:18;;;;;;;14.90;10.57;;;8.90;96.20;;;;;;5067376;28;20248;-73
2023/04/29 04:04:07;;;;;;;17.15;11.00;;;8.90;96.20;;;;;;5067100;28;20215;-73
2023/04/29 04:07:00;;;;;;;15.98;10.55;;;8.80;96.20;;;;;;5071687;28;20254;-72
2023/04/29 04:09:58;;;;;;;16.40;10.70;;;8.80;96.30;;;;;;5062769;28;20216;-72
2023/04/29 04:12:47;;;;;;;19.88;10.60;;;8.90;96.20;;;;;;5089581;27;20224;-74
2023/04/29 04:15:37;;;;;;;17.08;10.30;;;8.90;96.00;;;;;;5069627;27;20627;-72
2023/04/29 04:18:27;;;;;;;18.85;9.73;;;8.90;96.30;;;;;;5067385;28;20242;-72
2023/04/29 04:21:17;;;;;;;14.32;9.43;;;9.00;96.00;;;;;;5068704;28;20239;-71
2023/04/29 04:24:13;;;;;;;14.50;10.05;;;9.10;95.90;;;;;;5069650;28;20235;-74
2023/04/29 04:27:03;;;;;;;14.90;9.30;;;9.20;96.00;;;;;;5092378;27;20224;-71
2023/04/29 04:29:58;;;;;;;14.00;9.50;;;9.20;96.90;;;;;;5092904;27;20224;-73
2023/04/29 04:32:53;;;;;;;12.55;8.90;;;9.00;95.80;;;;;;5065992;28;20224;-73
2023/04/29 04:35:43;;;;;;;15.60;9.15;;;9.00;96.00;;;;;;5080025;28;20239;-72
2023/04/29 04:38:33;;;;;;;16.33;9.60;;;9.20;96.10;;;;;;5070562;28;20235;-72
2023/04/29 04:41:30;;;;;;;16.40;9.20;;;9.40;95.80;;;;;;5092107;27;20374;-71
2023/04/29 04:44:19;;;;;;;15.13;9.32;;;9.40;95.60;;;;;;5095063;27;20223;-71
2023/04/29 04:47:18;;;;;;;13.70;9.40;;;9.30;95.80;;;;;;5073170;28;20248;-71
2023/04/29 04:50:19;;;;;;;15.70;9.05;;;9.40;95.50;;;;;;5070570;28;20236;-72
2023/04/29 04:53:09;;;;;;;12.20;8.27;;;9.60;95.50;;;;;;5062104;28;20243;-72
2023/04/29 04:56:08;;;;;;;12.90;8.13;;;9.70;95.30;;;;;;5065606;28;20235;-72
2023/04/29 04:58:58;;;;;;;14.35;8.40;;;9.90;95.40;;;;;;5103118;27;20227;-71
2023/04/29 05:01:47;;;;;;;15.52;8.82;;;10.20;94.50;;;;;;5086907;27;20311;-71
2023/04/29 05:04:36;;;;;;;10.30;7.80;;;10.30;94.50;;;;;;5071001;28;20583;-73
2023/04/29 05:07:27;;;;;;;11.40;8.48;;;10.30;94.80;;;;;;5062522;28;20242;-72
2023/04/29 05:10:25;;;;;;;10.10;7.78;;;10.30;94.20;;;;;;5073600;28;20230;-73
2023/04/29 05:13:16;;;;;;;12.00;8.13;;;10.30;94.00;;;;;;5066479;28;20222;-72
2023/04/29 05:16:06;;;;;;;14.63;7.63;;;10.40;94.00;;;;;;5079685;28;20311;-73
2023/04/29 05:18:59;;;;;;;9.10;7.55;;;10.60;93.90;;;;;;5068063;28;20260;-74
2023/04/29 05:21:53;;;;;;;12.43;8.27;;;10.40;93.90;;;;;;5080195;28;20238;-74
2023/04/29 05:24:47;;;;;;;15.73;7.75;;;10.30;94.10;;;;;;5073079;28;20259;-73
2023/04/29 05:27:38;;;;;;;11.30;7.85;;;10.30;94.10;;;;;;5072925;28;20228;-73
2023/04/29 05:30:31;;;;;;;12.68;7.57;;;10.20;94.30;;;;;;5072981;28;20225;-72
2023/04/29 05:33:21;;;;;;;11.98;7.38;;;10.20;94.30;;;;;;5076727;28;20254;-73
2023/04/29 05:36:10;;;;;;;15.48;8.45;;;10.40;94.40;;;;;;5082759;28;20758;-73
2023/04/29 05:38:59;;;;;;;11.10;7.68;;;10.60;94.20;;;;;;5074410;28;20231;-71
2023/04/29 05:41:49;;;;;;;10.88;7.25;;;10.80;94.10;;;;;;5082009;28;20224;-73
2023/04/29 05:44:43;;;;;;;12.50;7.25;;;11.00;93.80;;;;;;5075172;28;20237;-70
2023/04/29 05:47:32;;;;;;;12.10;7.15;;;11.00;93.40;;;;;;5077140;28;20695;-72
2023/04/29 05:50:22;;;;;;;11.93;6.90;;;11.20;93.60;;;;;;5077087;28;20327;-72
2023/04/29 05:53:11;;;;;;;9.35;6.53;;;11.40;93.40;;;;;;5095981;27;20715;-72
2023/04/29 05:56:07;;;;;;;11.00;7.38;;;11.50;93.10;;;;;;5069397;28;20306;-74
2023/04/29 05:58:58;;;;;;;11.65;7.20;;;11.60;93.00;;;;;;5076437;28;20224;-73
2023/04/29 06:01:47;;;;;;;12.40;6.82;;;11.80;92.50;;;;;;5074571;28;20297;-72
2023/04/29 06:04:36;;;;;;;15.82;6.53;;;11.90;92.50;;;;;;5073875;28;20276;-73
2023/04/29 06:07:48;;;;;;;11.60;7.32;;;12.20;92.40;;;;;;5070937;28;20227;-71
2023/04/29 06:11:04;;;;;;;11.02;6.47;;;12.20;92.20;;;;;;5067829;28;20291;-72
2023/04/29 06:13:53;;;;;;;11.30;6.65;;;12.20;92.20;;;;;;5071226;28;20232;-72
2023/04/29 06:16:45;;;;;;;10.95;6.50;;;12.30;92.00;;;;;;5072400;28;20694;-72
2023/04/29 06:19:34;;;;;;;11.13;6.32;;;12.60;91.70;;;;;;5069306;28;20230;-73
2023/04/29 06:22:23;;;;;;;13.18;5.95;;;12.60;91.70;;;;;;5070981;28;20236;-75
2023/04/29 06:25:15;;;;;;;14.98;6.78;;;12.70;91.50;;;;;;5069117;28;20207;-73
2023/04/29 06:28:08;;;;;;;12.05;6.05;;;13.10;91.30;;;;;;5064632;28;20255;-74
2023/04/29 06:30:58;;;;;;;11.40;5.72;;;13.40;90.70;;;;;;5066676;28;20567;-72
2023/04/29 06:33:48;;;;;;;9.23;5.80;;;13.40;90.30;;;;;;5069840;28;20239;-72
2023/04/29 06:36:37;;;;;;;13.02;5.97;;;13.60;90.10;;;;;;5067372;28;20224;-71
2023/04/29 06:39:38;;;;;;;9.88;6.22;;;13.90;90.70;;;;;;5073536;28;20227;-72
2023/04/29 06:42:45;;;;;;;13.48;5.75;;;14.00;89.40;;;;;;5068317;28;20350;-72
2023/04/29 06:45:55;;;;;;;12.13;5.57;;;14.20;88.30;;;;;;5068412;28;20232;-72
2023/04/29 06:48:56;;;;;;;8.93;5.55;;;14.60;88.50;;;;;;5071293;28;20296;-75
2023/04/29 06:51:45;;;;;;;12.18;6.15;;;14.70;86.90;;;;;;5072301;28;20223;-73
2023/04/29 06:54:34;;;;;;;7.35;5.38;;;14.70;86.80;;;;;;5066896;28;20290;-74
2023/04/29 06:57:23;;;;;;;8.55;5.85;;;14.90;87.00;;;;;;5082326;28;20244;-73
2023/04/29 07:00:14;;;;;;;10.55;5.45;;;15.40;86.50;;;;;;5067211;28;20303;-71
2023/04/29 07:03:03;;;;;;;8.57;5.78;;;15.80;84.70;;;;;;5083611;27;20352;-74
2023/04/29 07:05:54;;;;;;;12.52;5.40;;;15.70;84.60;;;;;;5072920;28;20239;-75
2023/04/29 07:08:44;;;;;;;7.15;5.32;;;15.90;84.70;;;;;;5071657;28;20361;-73
2023/04/29 07:11:35;;;;;;;13.82;6.55;;;15.70;83.80;;;;;;5072583;28;20412;-72
2023/04/29 07:14:26;;;;;;;7.85;4.75;;;15.60;84.10;;;;;;5074528;28;20228;-72
2023/04/29 07:17:19;;;;;;;8.52;4.32;;;15.80;83.80;;;;;;5086306;28;20246;-72
2023/04/29 07:20:09;;;;;;;8.88;4.88;;;15.70;82.20;;;;;;5072402;28;20813;-70
2023/04/29 07:23:00;;;;;;;9.65;4.72;;;15.70;83.00;;;;;;5097421;27;20232;-72
2023/04/29 07:25:49;;;;;;;14.38;4.93;;;15.70;83.10;;;;;;5074131;28;20227;-72
2023/04/29 07:28:37;;;;;;;7.95;4.25;;;16.00;82.50;;;;;;5074238;28;20235;-73
2023/04/29 07:31:36;;;;;;;9.88;4.40;;;16.00;82.10;;;;;;5073144;28;20249;-73
2023/04/29 07:34:26;;;;;;;6.18;3.90;;;16.30;82.60;;;;;;5080665;28;20223;-74
2023/04/29 07:37:17;;;;;;;7.38;4.47;;;16.40;81.10;;;;;;5071791;28;20276;-73
2023/04/29 07:40:08;;;;;;;7.13;3.58;;;16.90;81.80;;;;;;5102558;27;20977;-74
2023/04/29 07:43:03;;;;;;;10.88;4.10;;;16.90;80.40;;;;;;5099194;27;20216;-76
2023/04/29 07:45:53;;;;;;;6.05;3.65;;;17.00;77.90;;;;;;5073927;28;20300;-74
2023/04/29 07:48:42;;;;;;;12.23;4.28;;;17.10;77.20;;;;;;5064348;28;20625;-74
2023/04/29 07:51:32;;;;;;;8.68;4.38;;;17.60;77.50;;;;;;5071538;28;20339;-75
2023/04/29 07:54:21;;;;;;;6.57;3.72;;;17.90;75.30;;;;;;5075287;28;20215;-75
2023/04/29 07:57:11;;;;;;;4.75;3.80;;;18.30;74.80;;;;;;5073728;28;20219;-75
2023/04/29 08:00:00;;;;;;;8.85;3.92;;;18.70;72.80;;;;;;5088282;28;20349;-75
2023/04/29 08:02:51;;;;;;;9.15;3.88;;;18.90;72.20;;;;;;5078737;27;20542;-75
2023/04/29 08:05:42;;;;;;;9.80;3.70;;;19.10;70.90;;;;;;5080530;27;20551;-74
2023/04/29 08:08:35;;;;;;;5.95;3.83;;;19.20;70.70;;;;;;5065928;28;20220;-73
2023/04/29 08:11:27;;;;;;;8.63;3.60;;;19.30;73.20;;;;;;5067921;28;20754;-73
2023/04/29 08:14:18;;;;;;;9.90;4.10;;;19.60;72.00;;;;;;5079388;28;20231;-73
2023/04/29 08:17:07;;;;;;;7.55;3.92;;;19.60;70.90;;;;;;5061051;28;20734;-73
2023/04/29 08:19:56;;;;;;;6.60;3.83;;;19.90;72.60;;;;;;5061528;28;20227;-74
2023/04/29 08:22:48;;;;;;;9.50;4.10;;;19.70;70.50;;;;;;5073552;28;20238;-74
2023/04/29 08:25:40;;;;;;;13.80;4.13;;;19.50;70.10;;;;;;5078457;28;20219;-73
2023/04/29 08:28:30;;;;;;;6.07;3.70;;;20.20;68.70;;;;;;5064254;28;20223;-72
2023/04/29 08:31:21;;;;;;;10.02;4.00;;;20.30;68.90;;;;;;5062378;28;20258;-72
2023/04/29 08:34:10;;;;;;;7.95;4.10;;;20.70;68.90;;;;;;5066159;28;20694;-73
2023/04/29 08:36:59;;;;;;;7.22;3.67;;;20.80;66.90;;;;;;5065633;28;20302;-74
2023/04/29 08:39:48;;;;;;;7.15;4.18;;;20.90;66.60;;;;;;5070330;28;20305;-76
2023/04/29 08:42:38;;;;;;;7.20;4.10;;;20.60;67.00;;;;;;5070815;28;20529;-74
2023/04/29 08:45:28;;;;;;;12.15;3.72;;;21.20;66.70;;;;;;5063446;28;20227;-75
2023/04/29 08:48:19;;;;;;;7.53;3.95;;;21.40;66.50;;;;;;5063801;28;20258;-78
2023/04/29 08:51:12;;;;;;;6.88;4.40;;;21.10;66.00;;;;;;5065664;28;21540;-79
2023/04/29 08:54:01;;;;;;;7.50;4.00;;;21.40;65.50;;;;;;5069176;28;20281;-77
2023/04/29 08:56:52;;;;;;;5.72;3.75;;;21.70;64.70;;;;;;5065920;28;20777;-76
2023/04/29 08:59:42;;;;;;;5.35;4.00;;;21.70;67.00;;;;;;5060877;28;20227;-76
2023/04/29 09:02:33;;;;;;;5.35;4.05;;;22.20;64.80;;;;;;5062699;28;20215;-75
2023/04/29 09:05:25;;;;;;;6.15;3.70;;;22.30;63.30;;;;;;5066240;28;20242;-75
2023/04/29 09:08:15;;;;;;;7.88;3.72;;;22.30;64.30;;;;;;5064484;28;20311;-76
2023/04/29 09:11:08;;;;;;;5.05;3.70;;;22.40;62.80;;;;;;5092498;27;20322;-75
2023/04/29 09:14:00;;;;;;;9.63;3.80;;;22.30;64.20;;;;;;5068013;28;20770;-75
2023/04/29 09:16:50;;;;;;;10.52;4.20;;;22.30;62.40;;;;;;5067305;28;20228;-73
2023/04/29 09:19:39;;;;;;;6.68;4.20;;;22.70;62.90;;;;;;5064743;28;20216;-76
2023/04/29 09:22:48;;;;;;;7.30;3.92;;;23.40;62.90;;;;;;5074585;28;20715;-77
2023/04/29 09:25:37;;;;;;;8.82;4.10;;;23.40;62.00;;;;;;5069940;28;20224;-77
2023/04/29 09:28:26;;;;;;;8.43;3.90;;;24.30;59.50;;;;;;5074709;28;20251;-77
2023/04/29 09:31:15;;;;;;;6.85;4.28;;;24.70;60.20;;;;;;5075487;27;20731;-73
2023/04/29 09:34:04;;;;;;;5.65;4.13;;;25.20;59.50;;;;;;5070662;28;20337;-75
2023/04/29 09:36:57;;;;;;;6.70;4.45;;;24.60;58.20;;;;;;5070013;28;20703;-82
2023/04/29 09:39:48;;;;;;;8.60;4.40;;;23.80;58.60;;;;;;5072229;28;20240;-77
2023/04/29 09:42:43;;;;;;;6.38;4.38;;;23.40;59.00;;;;;;5076908;28;21005;-77
2023/04/29 09:45:34;;;;;;;6.63;4.32;;;23.00;59.70;;;;;;5073608;28;20215;-76
2023/04/29 09:48:31;;;;;;;6.68;4.00;;;22.90;61.50;;;;;;5074281;28;20699;-76
2023/04/29 09:51:19;;;;;;;6.80;3.80;;;23.20;60.50;;;;;;5074342;28;20220;-75
2023/04/29 09:54:21;;;;;;;8.63;3.97;;;22.60;61.20;;;;;;5068306;28;20224;-76
2023/04/29 09:57:13;;;;;;;7.95;3.95;;;23.30;61.50;;;;;;5074622;28;20230;-76
2023/04/29 10:00:02;;;;;;;8.95;4.60;;;22.30;60.60;;;;;;5071198;28;20227;-76
2023/04/29 10:03:01;;;;;;;6.45;4.20;;;22.20;62.20;;;;;;5074928;28;20289;-76
2023/04/29 10:05:50;;;;;;;6.85;3.63;;;22.60;60.60;;;;;;5076961;28;20383;-76
2023/04/29 10:08:40;;;;;;;7.97;4.10;;;22.80;60.80;;;;;;5076278;28;20733;-76
2023/04/29 10:11:30;;;;;;;7.78;3.78;;;22.90;60.60;;;;;;5074459;28;20660;-76
2023/04/29 10:14:22;;;;;;;8.60;4.53;;;23.20;60.30;;;;;;5073197;27;20218;-76
2023/04/29 10:17:16;;;;;;;8.00;5.10;;;24.10;59.30;;;;;;5079431;28;20610;-76
2023/04/29 10:20:07;;;;;;;15.35;4.47;;;24.20;57.30;;;;;;5074143;28;20322;-77
2023/04/29 10:22:58;;;;;;;5.63;4.10;;;22.30;59.10;;;;;;5078391;28;20865;-75
2023/04/29 10:25:50;;;;;;;8.52;4.10;;;23.00;60.50;;;;;;5072129;28;20234;-75
2023/04/29 10:28:41;;;;;;;5.85;3.67;;;22.90;59.40;;;;;;5074503;28;20288;-77
2023/04/29 10:31:32;;;;;;;7.20;4.35;;;24.20;58.20;;;;;;5072826;28;20227;-77
2023/04/29 10:34:23;;;;;;;11.32;4.65;;;25.20;57.10;;;;;;5067809;28;20227;-76
2023/04/29 10:37:12;;;;;;;9.05;3.95;;;25.60;57.70;;;;;;5103154;27;21363;-73
2023/04/29 10:40:10;;;;;;;8.15;4.25;;;26.20;55.10;;;;;;5072560;28;20311;-73
2023/04/29 10:43:00;;;;;;;9.65;4.50;;;27.20;55.10;;;;;;5074577;28;20343;-74
2023/04/29 10:45:49;;;;;;;7.47;4.05;;;28.20;53.80;;;;;;5069285;28;20327;-73
2023/04/29 10:48:40;;;;;;;6.93;4.10;;;27.30;54.10;;;;;;5078481;28;20234;-73
2023/04/29 10:51:31;;;;;;;6.95;4.32;;;28.50;55.50;;;;;;5074644;28;20220;-74
2023/04/29 10:54:24;;;;;;;6.93;4.07;;;;;;;;;;5096086;27;20250;-74
2023/04/29 10:57:21;;;;;;;11.52;4.25;;;29.80;51.00;;;;;;5070019;28;20713;-75
2023/04/29 11:00:22;;;;;;;9.05;4.10;;;29.70;50.60;;;;;;5065737;28;20224;-75
2023/04/29 11:04:01;;;;;;;5.57;4.25;;;28.90;50.50;;;;;;5070528;28;21143;-76
2023/04/29 11:06:54;;;;;;;6.43;3.90;;;28.50;52.20;;;;;;4991524;28;20307;-73
2023/04/29 11:09:44;;;;;;;7.05;4.03;;;29.60;51.10;;;;;;5067914;28;20219;-75
2023/04/29 11:12:33;;;;;;;8.63;4.10;;;29.40;51.30;;;;;;5065457;28;20231;-73
2023/04/29 11:15:22;;;;;;;6.30;4.22;;;30.20;49.80;;;;;;5071451;28;20219;-73
2023/04/29 11:18:11;;;;;;;5.68;3.97;;;;;;;;;;5067819;28;20226;-73
2023/04/29 11:21:13;;;;;;;8.85;4.13;;;30.60;47.60;;;;;;5071248;28;20633;-74
2023/04/29 11:24:05;;;;;;;7.70;4.45;;;30.60;48.10;;;;;;5080558;28;20258;-75
2023/04/29 11:26:54;;;;;;;5.75;4.38;;;31.20;48.30;;;;;;5073301;28;20706;-76
2023/04/29 11:29:45;;;;;;;9.70;4.00;;;30.60;47.40;;;;;;5069382;28;20268;-75
2023/04/29 11:32:35;;;;;;;6.35;4.20;;;31.30;48.20;;;;;;5074927;28;20227;-73
2023/04/29 11:35:24;;;;;;;8.05;4.10;;;32.20;48.70;;;;;;5071862;28;20315;-74
2023/04/29 11:38:13;;;;;;;6.90;4.00;;;33.30;46.40;;;;;;5072572;28;20219;-71
2023/04/29 11:41:05;;;;;;;6.65;4.40;;;33.00;45.30;;;;;;5085416;28;20296;-74
2023/04/29 11:43:58;;;;;;;11.45;4.47;;;33.70;45.60;;;;;;5070883;28;20314;-73
2023/04/29 11:46:48;;;;;;;8.40;3.90;;;30.90;47.30;;;;;;5057992;28;20223;-78
2023/04/29 11:49:38;;;;;;;8.60;4.15;;;29.50;46.80;;;;;;5069144;28;20683;-76
2023/04/29 11:52:28;;;;;;;7.45;4.70;;;27.30;49.60;;;;;;5072681;28;20218;-75
2023/04/29 11:55:18;;;;;;;5.60;3.80;;;26.50;51.90;;;;;;5075955;28;20760;-74
2023/04/29 11:58:08;;;;;;;10.13;4.72;;;28.10;50.70;;;;;;5078358;28;20219;-75
2023/04/29 12:00:58;;;;;;;7.70;4.68;;;31.80;48.50;;;;;;5075014;28;20794;-73
2023/04/29 12:03:49;;;;;;;8.50;4.32;;;32.60;47.20;;;;;;5071203;28;20231;-76
2023/04/29 12:06:38;;;;;;;6.45;4.45;;;32.80;47.10;;;;;;5076289;28;20222;-76
2023/04/29 12:09:27;;;;;;;7.50;4.63;;;33.50;45.00;;;;;;5074449;28;20938;-75
2023/04/29 12:12:16;;;;;;;6.85;4.63;;;32.90;44.40;;;;;;5067469;28;20706;-75
2023/04/29 12:15:08;;;;;;;7.32;4.47;;;33.80;44.30;;;;;;5072850;28;20223;-75
2023/04/29 12:17:58;;;;;;;7.75;4.15;;;33.50;44.60;;;;;;5067383;28;20227;-75
2023/04/29 12:20:47;;;;;;;9.18;4.13;;;30.60;45.90;;;;;;5066498;28;20219;-75
2023/04/29 12:23:38;;;;;;;7.38;4.22;;;27.30;48.80;;;;;;5065403;28;20356;-75
2023/04/29 12:26:29;;;;;;;8.77;4.30;;;25.70;51.70;;;;;;5069752;28;20220;-74
2023/04/29 12:29:22;;;;;;;7.65;4.47;;;24.70;53.40;;;;;;5074731;28;20223;-74
2023/04/29 12:32:17;;;;;;;9.88;4.68;;;24.00;54.20;;;;;;5065940;28;20754;-75
2023/04/29 12:35:14;;;;;;;6.43;4.40;;;23.90;55.40;;;;;;5053883;28;20247;-73
2023/04/29 12:38:10;;;;;;;4.80;4.10;;;22.70;55.80;;;;;;5066757;28;20314;-76
2023/04/29 12:41:04;;;;;;;4.97;4.45;;;22.50;57.70;;;;;;5072646;28;20230;-71
2023/04/29 12:44:02;;;;;;;8.68;4.40;;;22.60;57.70;;;;;;5066289;28;20232;-72
2023/04/29 12:47:08;;;;;;;7.40;4.15;;;22.50;58.20;;;;;;5067737;28;20258;-72
2023/04/29 12:50:07;;;;;;;5.28;3.83;;;22.60;58.80;;;;;;5069094;28;20231;-73
2023/04/29 12:53:03;;;;;;;6.25;4.25;;;22.30;58.20;;;;;;5095035;27;20282;-72
2023/04/29 12:55:56;;;;;;;7.30;4.35;;;22.10;58.70;;;;;;5068851;28;20229;-73
2023/04/29 12:58:51;;;;;;;6.03;4.10;;;22.50;59.90;;;;;;5095153;27;20223;-72
2023/04/29 13:01:42;;;;;;;9.98;4.65;;;22.20;58.80;;;;;;5070718;28;20299;-72
2023/04/29 13:04:40;;;;;;;4.97;3.85;;;21.80;59.50;;;;;;5092478;27;20782;-70
2023/04/29 13:07:37;;;;;;;7.13;4.10;;;21.50;60.10;;;;;;5066268;28;20231;-71
2023/04/29 13:10:31;;;;;;;9.15;4.60;;;21.20;60.80;;;;;;5068227;28;20219;-72
2023/04/29 13:13:20;;;;;;;5.80;4.13;;;21.30;60.40;;;;;;5067254;28;20239;-72
2023/04/29 13:16:10;;;;;;;8.27;4.85;;;21.40;61.00;;;;;;5077146;28;20376;-72
2023/04/29 13:18:59;;;;;;;10.82;4.10;;;21.30;61.10;;;;;;5065386;28;20234;-72
2023/04/29 13:22:08;;;;;;;9.98;3.83;;;21.40;61.00;;;;;;5063784;28;20228;-72
2023/04/29 13:24:59;;;;;;;7.80;3.85;;;21.30;61.80;;;;;;5075422;27;20231;-74
2023/04/29 13:27:48;;;;;;;9.40;4.30;;;21.40;61.40;;;;;;5066452;28;20243;-73
2023/04/29 13:30:37;;;;;;;7.63;4.07;;;21.30;61.00;;;;;;5075628;28;20710;-73
2023/04/29 13:33:26;;;;;;;6.10;4.07;;;21.00;61.60;;;;;;5078226;28;20223;-73
2023/04/29 13:36:15;;;;;;;6.88;3.78;;;21.00;62.40;;;;;;5071575;28;20312;-72
2023/04/29 13:39:04;;;;;;;5.45;4.18;;;20.90;62.10;;;;;;5075355;28;20232;-73
2023/04/29 13:41:54;;;;;;;7.35;4.00;;;20.90;62.20;;;;;;5075207;28;20293;-73
2023/04/29 13:44:47;;;;;;;5.43;4.00;;;20.90;62.20;;;;;;5067778;28;20281;-73
2023/04/29 13:47:41;;;;;;;5.53;3.88;;;20.50;62.90;;;;;;5076547;28;20227;-72
2023/04/29 13:50:49;;;;;;;7.80;4.55;;;20.60;63.10;;;;;;5075489;27;20246;-71
2023/04/29 13:53:58;;;;;;;10.80;4.18;;;20.80;63.60;;;;;;5071578;28;20215;-72
2023/04/29 13:56:49;;;;;;;7.13;4.30;;;20.80;63.70;;;;;;5074712;28;21112;-73
2023/04/29 13:59:43;;;;;;;5.38;4.00;;;20.70;63.30;;;;;;5085832;27;20228;-75
2023/04/29 14:02:40;;;;;;;8.02;4.10;;;20.30;64.40;;;;;;5073586;28;20235;-73
2023/04/29 14:05:29;;;;;;;8.57;4.07;;;20.40;64.10;;;;;;5071084;28;20285;-74
2023/04/29 14:08:18;;;;;;;9.00;4.63;;;20.40;64.50;;;;;;5066866;28;20322;-71
2023/04/29 14:11:07;;;;;;;5.95;3.97;;;20.40;64.00;;;;;;5078232;28;20840;-72
2023/04/29 14:13:56;;;;;;;9.10;4.43;;;20.40;64.40;;;;;;5072766;28;20223;-72
2023/04/29 14:16:46;;;;;;;5.28;3.97;;;20.20;65.00;;;;;;5076982;28;20257;-73
2023/04/29 14:19:35;;;;;;;7.68;4.45;;;20.30;65.70;;;;;;5072055;28;20234;-73
2023/04/29 14:22:26;;;;;;;6.20;4.10;;;20.40;65.20;;;;;;5069864;28;20235;-73
2023/04/29 14:25:15;;;;;;;6.88;3.80;;;20.40;65.10;;;;;;5073800;28;20224;-73
2023/04/29 14:28:04;;;;;;;8.00;4.10;;;20.30;65.60;;;;;;5075115;28;20375;-74
2023/04/29 14:30:53;;;;;;;6.40;4.20;;;20.40;65.90;;;;;;5072280;28;20219;-73
2023/04/29 14:33:43;;;;;;;7.20;4.50;;;20.40;65.90;;;;;;5065136;28;20286;-73
2023/04/29 14:36:33;;;;;;;8.15;4.20;;;20.50;66.30;;;;;;5082090;28;20222;-73
2023/04/29 14:39:21;;;;;;;5.10;4.05;;;20.50;65.60;;;;;;5079631;28;20246;-73
2023/04/29 14:42:11;;;;;;;8.30;4.28;;;20.40;65.40;;;;;;5069205;28;20234;-73
2023/04/29 14:45:00;;;;;;;9.70;4.10;;;20.30;65.80;;;;;;5074093;27;20239;-73
2023/04/29 14:47:49;;;;;;;6.22;3.88;;;20.30;65.70;;;;;;5076154;27;20836;-73
2023/04/29 14:50:39;;;;;;;6.82;4.35;;;20.20;66.00;;;;;;5069611;27;20223;-72